sensor_id;sensor_type;location;lat;lon;timestamp;P1;durP1;ratioP1;P2;durP2;ratioP2
16387;SDS011;8303;53.446;9.988;2022-11-04T05:47:24;5.23;;;3.90;;
16387;SDS011;8303;53.446;9.988;2022-11-04T05:49:52;5.00;;;4.03;;
16387;SDS011;8303;53.446;9.988;2022-11-04T05:52:20;4.20;;;3.80;;
16387;SDS011;8303;53.446;9.988;2022-11-04T05:54:47;4.73;;;3.80;;
16387;SDS011;8303;53.446;9.988;2022-11-04T05:57:14;5.13;;;4.03;;
16387;SDS011;8303;53.446;9.988;2022-11-04T05:59:40;7.73;;;3.90;;
16387;SDS011;8303;53.446;9.988;2022-11-04T06:02:07;4.37;;;3.97;;
16387;SDS011;8303;53.446;9.988;2022-11-04T06:04:36;4.40;;;3.70;;
16387;SDS011;8303;53.446;9.988;2022-11-04T06:07:03;4.63;;;4.23;;
16387;SDS011;8303;53.446;9.988;2022-11-04T06:09:30;4.37;;;3.40;;
16387;SDS011;8303;53.446;9.988;2022-11-04T06:12:07;5.97;;;4.20;;
16387;SDS011;8303;53.446;9.988;2022-11-04T06:14:35;3.87;;;3.57;;
16387;SDS011;8303;53.446;9.988;2022-11-04T06:17:02;3.80;;;3.50;;
16387;SDS011;8303;53.446;9.988;2022-11-04T06:19:29;3.90;;;3.60;;
16387;SDS011;8303;53.446;9.988;2022-11-04T06:21:57;4.00;;;3.60;;
16387;SDS011;8303;53.446;9.988;2022-11-04T06:24:25;4.40;;;3.90;;
16387;SDS011;8303;53.446;9.988;2022-11-04T06:26:52;4.63;;;4.23;;
16387;SDS011;8303;53.446;9.988;2022-11-04T06:29:19;4.57;;;4.07;;
16387;SDS011;8303;53.446;9.988;2022-11-04T06:31:46;3.97;;;3.67;;
16387;SDS011;8303;53.446;9.988;2022-11-04T06:34:13;5.17;;;4.67;;
16387;SDS011;8303;53.446;9.988;2022-11-04T06:36:40;5.67;;;4.77;;
16387;SDS011;8303;53.446;9.988;2022-11-04T06:39:08;7.23;;;4.30;;
16387;SDS011;8303;53.446;9.988;2022-11-04T06:41:39;8.40;;;4.97;;
16387;SDS011;8303;53.446;9.988;2022-11-04T06:44:06;6.03;;;4.50;;
16387;SDS011;8303;53.446;9.988;2022-11-04T06:46:33;5.73;;;5.00;;
16387;SDS011;8303;53.446;9.988;2022-11-04T06:49:03;7.23;;;4.93;;
16387;SDS011;8303;53.446;9.988;2022-11-04T06:51:31;6.20;;;5.30;;
16387;SDS011;8303;53.446;9.988;2022-11-04T06:53:58;5.97;;;5.17;;
16387;SDS011;8303;53.446;9.988;2022-11-04T06:56:26;6.43;;;5.10;;
16387;SDS011;8303;53.446;9.988;2022-11-04T06:58:53;8.53;;;5.87;;
16387;SDS011;8303;53.446;9.988;2022-11-04T07:01:22;7.40;;;5.47;;
16387;SDS011;8303;53.446;9.988;2022-11-04T07:03:50;8.27;;;6.23;;
16387;SDS011;8303;53.446;9.988;2022-11-04T07:06:18;6.90;;;5.93;;
16387;SDS011;8303;53.446;9.988;2022-11-04T07:08:46;6.47;;;5.83;;
16387;SDS011;8303;53.446;9.988;2022-11-04T07:11:14;8.57;;;6.40;;
16387;SDS011;8303;53.446;9.988;2022-11-04T07:13:43;8.33;;;6.50;;
16387;SDS011;8303;53.446;9.988;2022-11-04T07:16:10;9.47;;;6.80;;
16387;SDS011;8303;53.446;9.988;2022-11-04T07:18:38;9.77;;;7.30;;
16387;SDS011;8303;53.446;9.988;2022-11-04T07:21:05;6.93;;;6.23;;
16387;SDS011;8303;53.446;9.988;2022-11-04T07:23:35;7.73;;;6.47;;
16387;SDS011;8303;53.446;9.988;2022-11-04T07:26:02;6.90;;;5.87;;
16387;SDS011;8303;53.446;9.988;2022-11-04T07:28:31;8.47;;;6.70;;
16387;SDS011;8303;53.446;9.988;2022-11-04T07:31:00;8.70;;;6.27;;
16387;SDS011;8303;53.446;9.988;2022-11-04T07:33:28;8.23;;;6.37;;
16387;SDS011;8303;53.446;9.988;2022-11-04T07:35:55;10.00;;;7.50;;
16387;SDS011;8303;53.446;9.988;2022-11-04T07:38:22;11.27;;;6.60;;
16387;SDS011;8303;53.446;9.988;2022-11-04T07:40:49;13.03;;;7.00;;
16387;SDS011;8303;53.446;9.988;2022-11-04T07:43:16;8.50;;;7.13;;
16387;SDS011;8303;53.446;9.988;2022-11-04T07:45:43;11.23;;;7.40;;
16387;SDS011;8303;53.446;9.988;2022-11-04T07:48:11;9.57;;;6.87;;
16387;SDS011;8303;53.446;9.988;2022-11-04T07:50:39;14.00;;;7.67;;
16387;SDS011;8303;53.446;9.988;2022-11-04T07:53:07;9.50;;;6.80;;
16387;SDS011;8303;53.446;9.988;2022-11-04T07:55:35;7.80;;;6.80;;
16387;SDS011;8303;53.446;9.988;2022-11-04T07:58:05;7.90;;;7.10;;
16387;SDS011;8303;53.446;9.988;2022-11-04T08:00:33;10.90;;;7.33;;
16387;SDS011;8303;53.446;9.988;2022-11-04T08:03:00;8.90;;;7.20;;
16387;SDS011;8303;53.446;9.988;2022-11-04T08:05:29;10.47;;;7.93;;
16387;SDS011;8303;53.446;9.988;2022-11-04T08:07:56;8.43;;;6.90;;
16387;SDS011;8303;53.446;9.988;2022-11-04T08:10:23;8.13;;;7.13;;
16387;SDS011;8303;53.446;9.988;2022-11-04T08:12:50;8.17;;;6.70;;
16387;SDS011;8303;53.446;9.988;2022-11-04T08:15:17;10.47;;;6.67;;
16387;SDS011;8303;53.446;9.988;2022-11-04T08:17:44;7.77;;;6.60;;
16387;SDS011;8303;53.446;9.988;2022-11-04T08:20:11;8.87;;;6.70;;
16387;SDS011;8303;53.446;9.988;2022-11-04T08:22:40;8.73;;;6.30;;
16387;SDS011;8303;53.446;9.988;2022-11-04T08:25:10;7.07;;;6.23;;
16387;SDS011;8303;53.446;9.988;2022-11-04T08:27:39;8.60;;;6.63;;
16387;SDS011;8303;53.446;9.988;2022-11-04T08:30:07;11.80;;;6.70;;
16387;SDS011;8303;53.446;9.988;2022-11-04T08:32:35;8.70;;;6.80;;
16387;SDS011;8303;53.446;9.988;2022-11-04T08:35:02;7.53;;;6.70;;
16387;SDS011;8303;53.446;9.988;2022-11-04T08:37:29;8.60;;;6.83;;
16387;SDS011;8303;53.446;9.988;2022-11-04T08:39:57;9.40;;;6.10;;
16387;SDS011;8303;53.446;9.988;2022-11-04T08:42:25;8.00;;;6.80;;
16387;SDS011;8303;53.446;9.988;2022-11-04T08:44:54;7.33;;;6.10;;
16387;SDS011;8303;53.446;9.988;2022-11-04T08:47:26;7.90;;;6.80;;
16387;SDS011;8303;53.446;9.988;2022-11-04T08:49:53;8.57;;;5.90;;
16387;SDS011;8303;53.446;9.988;2022-11-04T08:52:21;7.77;;;6.00;;
16387;SDS011;8303;53.446;9.988;2022-11-04T08:54:48;6.63;;;5.63;;
16387;SDS011;8303;53.446;9.988;2022-11-04T08:57:17;7.57;;;5.60;;
16387;SDS011;8303;53.446;9.988;2022-11-04T08:59:44;6.23;;;5.60;;
16387;SDS011;8303;53.446;9.988;2022-11-04T09:02:12;6.30;;;5.17;;
16387;SDS011;8303;53.446;9.988;2022-11-04T09:04:41;8.87;;;5.43;;
16387;SDS011;8303;53.446;9.988;2022-11-04T09:07:08;6.57;;;4.93;;
16387;SDS011;8303;53.446;9.988;2022-11-04T09:09:35;8.70;;;5.73;;
16387;SDS011;8303;53.446;9.988;2022-11-04T09:12:03;6.50;;;5.00;;
16387;SDS011;8303;53.446;9.988;2022-11-04T09:14:35;5.77;;;5.07;;
16387;SDS011;8303;53.446;9.988;2022-11-04T09:17:02;7.07;;;5.00;;
16387;SDS011;8303;53.446;9.988;2022-11-04T09:19:29;5.60;;;4.93;;
16387;SDS011;8303;53.446;9.988;2022-11-04T09:21:59;6.00;;;5.33;;
16387;SDS011;8303;53.446;9.988;2022-11-04T09:24:26;6.20;;;4.40;;
16387;SDS011;8303;53.446;9.988;2022-11-04T09:26:54;5.73;;;4.50;;
16387;SDS011;8303;53.446;9.988;2022-11-04T09:29:21;6.00;;;4.60;;
16387;SDS011;8303;53.446;9.988;2022-11-04T09:31:49;6.47;;;4.83;;
16387;SDS011;8303;53.446;9.988;2022-11-04T09:34:16;8.50;;;4.30;;
16387;SDS011;8303;53.446;9.988;2022-11-04T09:36:43;5.10;;;4.60;;
16387;SDS011;8303;53.446;9.988;2022-11-04T09:39:11;5.07;;;4.43;;
16387;SDS011;8303;53.446;9.988;2022-11-04T09:41:46;5.03;;;4.40;;
16387;SDS011;8303;53.446;9.988;2022-11-04T09:44:22;6.60;;;5.13;;
16387;SDS011;8303;53.446;9.988;2022-11-04T09:46:54;7.50;;;5.13;;
16387;SDS011;8303;53.446;9.988;2022-11-04T09:49:25;5.07;;;4.57;;
16387;SDS011;8303;53.446;9.988;2022-11-04T09:51:55;5.40;;;4.77;;
16387;SDS011;8303;53.446;9.988;2022-11-04T09:54:25;5.30;;;4.50;;
16387;SDS011;8303;53.446;9.988;2022-11-04T09:56:56;7.33;;;5.20;;
16387;SDS011;8303;53.446;9.988;2022-11-04T09:59:27;7.07;;;4.87;;
16387;SDS011;8303;53.446;9.988;2022-11-04T10:02:04;7.03;;;5.23;;
16387;SDS011;8303;53.446;9.988;2022-11-04T10:04:51;5.57;;;5.07;;
16387;SDS011;8303;53.446;9.988;2022-11-04T10:07:36;5.13;;;4.60;;
16387;SDS011;8303;53.446;9.988;2022-11-04T10:10:16;6.03;;;5.17;;
16387;SDS011;8303;53.446;9.988;2022-11-04T10:12:52;5.93;;;4.60;;
16387;SDS011;8303;53.446;9.988;2022-11-04T10:15:37;6.17;;;4.83;;
16387;SDS011;8303;53.446;9.988;2022-11-04T10:18:23;5.73;;;5.03;;
16387;SDS011;8303;53.446;9.988;2022-11-04T10:20:59;5.23;;;4.83;;
16387;SDS011;8303;53.446;9.988;2022-11-04T10:23:37;5.90;;;5.00;;
16387;SDS011;8303;53.446;9.988;2022-11-04T10:26:12;5.67;;;4.93;;
16387;SDS011;8303;53.446;9.988;2022-11-04T10:28:43;5.40;;;4.87;;
16387;SDS011;8303;53.446;9.988;2022-11-04T10:31:13;5.73;;;5.10;;
16387;SDS011;8303;53.446;9.988;2022-11-04T10:33:46;5.70;;;4.97;;
16387;SDS011;8303;53.446;9.988;2022-11-04T10:36:17;9.93;;;5.53;;
16387;SDS011;8303;53.446;9.988;2022-11-04T10:38:46;5.37;;;4.83;;
16387;SDS011;8303;53.446;9.988;2022-11-04T10:41:24;5.63;;;5.13;;
16387;SDS011;8303;53.446;9.988;2022-11-04T10:43:56;7.83;;;5.23;;
16387;SDS011;8303;53.446;9.988;2022-11-04T10:46:29;5.73;;;5.23;;
16387;SDS011;8303;53.446;9.988;2022-11-04T10:52:09;7.07;;;5.57;;
16387;SDS011;8303;53.446;9.988;2022-11-04T10:54:40;6.20;;;5.27;;
16387;SDS011;8303;53.446;9.988;2022-11-04T10:57:11;5.87;;;5.27;;
16387;SDS011;8303;53.446;9.988;2022-11-04T10:59:53;5.83;;;5.00;;
16387;SDS011;8303;53.446;9.988;2022-11-04T11:05:23;5.57;;;4.97;;
16387;SDS011;8303;53.446;9.988;2022-11-04T11:07:51;5.33;;;4.90;;
16387;SDS011;8303;53.446;9.988;2022-11-04T11:10:20;4.87;;;4.43;;
16387;SDS011;8303;53.446;9.988;2022-11-04T11:12:52;5.07;;;4.57;;
16387;SDS011;8303;53.446;9.988;2022-11-04T11:15:26;5.40;;;4.73;;
16387;SDS011;8303;53.446;9.988;2022-11-04T11:18:05;4.80;;;4.40;;
16387;SDS011;8303;53.446;9.988;2022-11-04T11:20:45;5.30;;;4.70;;
16387;SDS011;8303;53.446;9.988;2022-11-04T11:26:05;5.53;;;4.30;;
16387;SDS011;8303;53.446;9.988;2022-11-04T11:28:33;4.60;;;3.90;;
16387;SDS011;8303;53.446;9.988;2022-11-04T11:31:04;4.37;;;3.97;;
16387;SDS011;8303;53.446;9.988;2022-11-04T11:33:47;5.17;;;4.60;;
16387;SDS011;8303;53.446;9.988;2022-11-04T11:36:28;3.93;;;3.63;;
16387;SDS011;8303;53.446;9.988;2022-11-04T11:39:00;5.13;;;3.53;;
16387;SDS011;8303;53.446;9.988;2022-11-04T11:41:33;3.37;;;3.07;;
16387;SDS011;8303;53.446;9.988;2022-11-04T11:44:17;3.20;;;2.90;;
16387;SDS011;8303;53.446;9.988;2022-11-04T11:46:50;5.20;;;3.43;;
16387;SDS011;8303;53.446;9.988;2022-11-04T11:49:22;3.93;;;3.40;;
16387;SDS011;8303;53.446;9.988;2022-11-04T11:51:54;4.70;;;3.40;;
16387;SDS011;8303;53.446;9.988;2022-11-04T11:54:41;3.67;;;3.37;;
16387;SDS011;8303;53.446;9.988;2022-11-04T11:57:13;3.97;;;3.67;;
16387;SDS011;8303;53.446;9.988;2022-11-04T11:59:52;4.33;;;3.30;;
16387;SDS011;8303;53.446;9.988;2022-11-04T12:02:25;4.27;;;3.30;;
16387;SDS011;8303;53.446;9.988;2022-11-04T12:04:59;3.87;;;2.90;;
16387;SDS011;8303;53.446;9.988;2022-11-04T12:07:30;4.00;;;2.87;;
16387;SDS011;8303;53.446;9.988;2022-11-04T12:10:08;4.53;;;2.70;;
16387;SDS011;8303;53.446;9.988;2022-11-04T12:12:48;6.90;;;2.50;;
16387;SDS011;8303;53.446;9.988;2022-11-04T12:15:31;3.73;;;2.60;;
16387;SDS011;8303;53.446;9.988;2022-11-04T12:18:17;3.87;;;2.37;;
16387;SDS011;8303;53.446;9.988;2022-11-04T12:20:58;5.60;;;2.60;;
16387;SDS011;8303;53.446;9.988;2022-11-04T12:23:36;3.93;;;2.50;;
16387;SDS011;8303;53.446;9.988;2022-11-04T12:26:11;3.67;;;2.20;;
16387;SDS011;8303;53.446;9.988;2022-11-04T12:28:47;3.50;;;2.40;;
16387;SDS011;8303;53.446;9.988;2022-11-04T12:31:27;3.67;;;2.57;;
16387;SDS011;8303;53.446;9.988;2022-11-04T12:34:07;4.50;;;2.50;;
16387;SDS011;8303;53.446;9.988;2022-11-04T12:36:42;5.93;;;2.53;;
16387;SDS011;8303;53.446;9.988;2022-11-04T12:39:21;3.83;;;2.10;;
16387;SDS011;8303;53.446;9.988;2022-11-04T12:41:57;3.87;;;2.47;;
16387;SDS011;8303;53.446;9.988;2022-11-04T12:44:31;4.23;;;2.10;;
16387;SDS011;8303;53.446;9.988;2022-11-04T12:47:07;2.63;;;2.40;;
16387;SDS011;8303;53.446;9.988;2022-11-04T12:49:47;4.33;;;2.20;;
16387;SDS011;8303;53.446;9.988;2022-11-04T12:52:34;5.10;;;2.13;;
16387;SDS011;8303;53.446;9.988;2022-11-04T12:58:02;2.97;;;2.40;;
16387;SDS011;8303;53.446;9.988;2022-11-04T13:00:39;5.47;;;2.50;;
16387;SDS011;8303;53.446;9.988;2022-11-04T13:03:09;5.83;;;2.53;;
16387;SDS011;8303;53.446;9.988;2022-11-04T13:05:40;3.23;;;2.20;;
16387;SDS011;8303;53.446;9.988;2022-11-04T13:08:13;2.63;;;2.30;;
16387;SDS011;8303;53.446;9.988;2022-11-04T13:10:49;3.40;;;2.20;;
16387;SDS011;8303;53.446;9.988;2022-11-04T13:13:22;3.90;;;2.90;;
16387;SDS011;8303;53.446;9.988;2022-11-04T13:15:54;3.87;;;2.30;;
16387;SDS011;8303;53.446;9.988;2022-11-04T13:18:24;4.40;;;2.87;;
16387;SDS011;8303;53.446;9.988;2022-11-04T13:20:56;4.43;;;2.37;;
16387;SDS011;8303;53.446;9.988;2022-11-04T13:23:27;6.30;;;2.50;;
16387;SDS011;8303;53.446;9.988;2022-11-04T13:26:04;6.40;;;2.60;;
16387;SDS011;8303;53.446;9.988;2022-11-04T13:28:35;3.87;;;2.50;;
16387;SDS011;8303;53.446;9.988;2022-11-04T13:31:07;3.77;;;3.13;;
16387;SDS011;8303;53.446;9.988;2022-11-04T13:33:43;4.43;;;2.37;;
16387;SDS011;8303;53.446;9.988;2022-11-04T13:36:22;4.47;;;2.47;;
16387;SDS011;8303;53.446;9.988;2022-11-04T13:38:58;6.83;;;2.63;;
16387;SDS011;8303;53.446;9.988;2022-11-04T13:41:44;6.07;;;2.90;;
16387;SDS011;8303;53.446;9.988;2022-11-04T13:44:25;6.87;;;3.00;;
16387;SDS011;8303;53.446;9.988;2022-11-04T13:46:55;4.93;;;2.40;;
16387;SDS011;8303;53.446;9.988;2022-11-04T13:49:25;3.03;;;2.47;;
16387;SDS011;8303;53.446;9.988;2022-11-04T13:52:00;7.60;;;2.93;;
16387;SDS011;8303;53.446;9.988;2022-11-04T13:54:32;4.80;;;2.40;;
16387;SDS011;8303;53.446;9.988;2022-11-04T13:57:09;4.67;;;2.77;;
16387;SDS011;8303;53.446;9.988;2022-11-04T13:59:39;5.03;;;2.20;;
16387;SDS011;8303;53.446;9.988;2022-11-04T14:04:50;7.50;;;2.60;;
16387;SDS011;8303;53.446;9.988;2022-11-04T14:07:17;8.40;;;2.53;;
16387;SDS011;8303;53.446;9.988;2022-11-04T14:09:51;5.97;;;2.93;;
16387;SDS011;8303;53.446;9.988;2022-11-04T14:12:32;6.07;;;2.70;;
16387;SDS011;8303;53.446;9.988;2022-11-04T14:15:10;5.60;;;2.50;;
16387;SDS011;8303;53.446;9.988;2022-11-04T14:17:57;7.03;;;2.47;;
16387;SDS011;8303;53.446;9.988;2022-11-04T14:20:29;4.03;;;2.40;;
16387;SDS011;8303;53.446;9.988;2022-11-04T14:23:01;5.40;;;2.80;;
16387;SDS011;8303;53.446;9.988;2022-11-04T14:25:34;5.70;;;2.93;;
16387;SDS011;8303;53.446;9.988;2022-11-04T14:28:18;4.40;;;2.50;;
16387;SDS011;8303;53.446;9.988;2022-11-04T14:30:53;2.67;;;2.43;;
16387;SDS011;8303;53.446;9.988;2022-11-04T14:33:27;10.63;;;2.57;;
16387;SDS011;8303;53.446;9.988;2022-11-04T14:36:12;9.47;;;3.17;;
16387;SDS011;8303;53.446;9.988;2022-11-04T14:38:46;6.13;;;2.93;;
16387;SDS011;8303;53.446;9.988;2022-11-04T14:41:20;2.93;;;2.30;;
16387;SDS011;8303;53.446;9.988;2022-11-04T14:43:49;7.43;;;2.47;;
16387;SDS011;8303;53.446;9.988;2022-11-04T14:46:20;2.80;;;2.50;;
16387;SDS011;8303;53.446;9.988;2022-11-04T14:48:51;4.27;;;2.30;;
16387;SDS011;8303;53.446;9.988;2022-11-04T14:51:22;6.70;;;2.60;;
16387;SDS011;8303;53.446;9.988;2022-11-04T14:53:51;4.33;;;2.53;;
16387;SDS011;8303;53.446;9.988;2022-11-04T14:56:25;6.00;;;2.77;;
16387;SDS011;8303;53.446;9.988;2022-11-04T14:58:57;7.93;;;2.93;;
16387;SDS011;8303;53.446;9.988;2022-11-04T15:01:30;4.90;;;2.63;;
16387;SDS011;8303;53.446;9.988;2022-11-04T15:04:03;4.77;;;2.70;;
16387;SDS011;8303;53.446;9.988;2022-11-04T15:06:31;6.13;;;2.70;;
16387;SDS011;8303;53.446;9.988;2022-11-04T15:08:58;4.57;;;2.67;;
16387;SDS011;8303;53.446;9.988;2022-11-04T15:11:26;5.87;;;3.03;;
16387;SDS011;8303;53.446;9.988;2022-11-04T15:14:15;8.10;;;2.80;;
16387;SDS011;8303;53.446;9.988;2022-11-04T15:16:45;5.63;;;2.47;;
16387;SDS011;8303;53.446;9.988;2022-11-04T15:19:17;2.63;;;2.23;;
16387;SDS011;8303;53.446;9.988;2022-11-04T15:21:49;5.93;;;2.50;;
16387;SDS011;8303;53.446;9.988;2022-11-04T15:24:16;5.67;;;2.70;;
16387;SDS011;8303;53.446;9.988;2022-11-04T15:26:47;4.77;;;2.70;;
16387;SDS011;8303;53.446;9.988;2022-11-04T15:29:17;4.37;;;3.13;;
16387;SDS011;8303;53.446;9.988;2022-11-04T15:31:52;4.93;;;2.83;;
16387;SDS011;8303;53.446;9.988;2022-11-04T15:34:21;4.73;;;3.40;;
16387;SDS011;8303;53.446;9.988;2022-11-04T15:36:49;4.53;;;2.87;;
16387;SDS011;8303;53.446;9.988;2022-11-04T15:39:20;3.70;;;2.90;;
16387;SDS011;8303;53.446;9.988;2022-11-04T15:41:51;9.57;;;4.13;;
16387;SDS011;8303;53.446;9.988;2022-11-04T15:44:45;4.00;;;2.77;;
16387;SDS011;8303;53.446;9.988;2022-11-04T15:47:22;3.10;;;2.53;;
16387;SDS011;8303;53.446;9.988;2022-11-04T15:49:51;4.90;;;3.10;;
16387;SDS011;8303;53.446;9.988;2022-11-04T15:52:19;6.63;;;2.80;;
16387;SDS011;8303;53.446;9.988;2022-11-04T15:54:48;4.07;;;2.80;;
16387;SDS011;8303;53.446;9.988;2022-11-04T15:57:17;13.03;;;5.53;;
16387;SDS011;8303;53.446;9.988;2022-11-04T15:59:48;9.13;;;4.53;;
16387;SDS011;8303;53.446;9.988;2022-11-04T16:02:22;5.83;;;3.00;;
16387;SDS011;8303;53.446;9.988;2022-11-04T16:05:01;4.50;;;2.60;;
16387;SDS011;8303;53.446;9.988;2022-11-04T16:07:29;3.30;;;3.00;;
16387;SDS011;8303;53.446;9.988;2022-11-04T16:09:59;7.57;;;4.47;;
16387;SDS011;8303;53.446;9.988;2022-11-04T16:12:27;7.53;;;4.03;;
16387;SDS011;8303;53.446;9.988;2022-11-04T16:14:57;8.50;;;4.40;;
16387;SDS011;8303;53.446;9.988;2022-11-04T16:17:24;4.50;;;3.63;;
16387;SDS011;8303;53.446;9.988;2022-11-04T16:19:53;6.90;;;3.50;;
16387;SDS011;8303;53.446;9.988;2022-11-04T16:22:23;6.23;;;3.77;;
16387;SDS011;8303;53.446;9.988;2022-11-04T16:24:53;7.23;;;3.40;;
16387;SDS011;8303;53.446;9.988;2022-11-04T16:27:22;5.93;;;3.97;;
16387;SDS011;8303;53.446;9.988;2022-11-04T16:30:00;4.10;;;3.67;;
16387;SDS011;8303;53.446;9.988;2022-11-04T16:32:39;9.70;;;3.40;;
16387;SDS011;8303;53.446;9.988;2022-11-04T16:35:11;6.40;;;3.30;;
16387;SDS011;8303;53.446;9.988;2022-11-04T16:37:43;7.67;;;3.20;;
16387;SDS011;8303;53.446;9.988;2022-11-04T16:40:11;6.30;;;3.40;;
16387;SDS011;8303;53.446;9.988;2022-11-04T16:42:39;6.23;;;3.00;;
16387;SDS011;8303;53.446;9.988;2022-11-04T16:45:12;5.30;;;2.87;;
16387;SDS011;8303;53.446;9.988;2022-11-04T16:47:45;4.07;;;3.27;;
16387;SDS011;8303;53.446;9.988;2022-11-04T16:50:12;7.80;;;3.37;;
16387;SDS011;8303;53.446;9.988;2022-11-04T16:52:40;5.47;;;3.23;;
16387;SDS011;8303;53.446;9.988;2022-11-04T16:55:08;7.20;;;3.30;;
16387;SDS011;8303;53.446;9.988;2022-11-04T16:57:36;4.07;;;3.07;;
16387;SDS011;8303;53.446;9.988;2022-11-04T17:00:03;6.00;;;3.43;;
16387;SDS011;8303;53.446;9.988;2022-11-04T17:02:33;6.67;;;3.33;;
16387;SDS011;8303;53.446;9.988;2022-11-04T17:05:02;6.23;;;3.47;;
16387;SDS011;8303;53.446;9.988;2022-11-04T17:07:30;4.47;;;3.10;;
16387;SDS011;8303;53.446;9.988;2022-11-04T17:09:57;7.17;;;3.80;;
16387;SDS011;8303;53.446;9.988;2022-11-04T17:12:24;6.33;;;3.40;;
16387;SDS011;8303;53.446;9.988;2022-11-04T17:14:51;4.73;;;3.60;;
16387;SDS011;8303;53.446;9.988;2022-11-04T17:17:18;6.93;;;3.73;;
16387;SDS011;8303;53.446;9.988;2022-11-04T17:19:46;8.07;;;3.67;;
16387;SDS011;8303;53.446;9.988;2022-11-04T17:22:13;7.17;;;3.57;;
16387;SDS011;8303;53.446;9.988;2022-11-04T17:24:41;11.33;;;4.90;;
16387;SDS011;8303;53.446;9.988;2022-11-04T17:27:09;5.53;;;3.73;;
16387;SDS011;8303;53.446;9.988;2022-11-04T17:29:35;4.97;;;3.07;;
16387;SDS011;8303;53.446;9.988;2022-11-04T17:32:03;7.73;;;4.47;;
16387;SDS011;8303;53.446;9.988;2022-11-04T17:34:30;11.63;;;4.30;;
16387;SDS011;8303;53.446;9.988;2022-11-04T17:36:58;4.87;;;3.60;;
16387;SDS011;8303;53.446;9.988;2022-11-04T17:39:25;8.67;;;4.80;;
16387;SDS011;8303;53.446;9.988;2022-11-04T17:41:52;10.77;;;4.80;;
16387;SDS011;8303;53.446;9.988;2022-11-04T17:44:39;9.33;;;4.70;;
16387;SDS011;8303;53.446;9.988;2022-11-04T17:47:06;11.40;;;5.73;;
16387;SDS011;8303;53.446;9.988;2022-11-04T17:49:34;19.87;;;6.13;;
16387;SDS011;8303;53.446;9.988;2022-11-04T17:52:04;17.87;;;6.07;;
16387;SDS011;8303;53.446;9.988;2022-11-04T17:54:31;13.27;;;5.17;;
16387;SDS011;8303;53.446;9.988;2022-11-04T17:56:58;12.33;;;5.40;;
16387;SDS011;8303;53.446;9.988;2022-11-04T17:59:25;20.67;;;8.20;;
16387;SDS011;8303;53.446;9.988;2022-11-04T18:01:52;19.97;;;6.90;;
16387;SDS011;8303;53.446;9.988;2022-11-04T18:04:19;24.53;;;7.40;;
16387;SDS011;8303;53.446;9.988;2022-11-04T18:06:48;17.00;;;6.67;;
16387;SDS011;8303;53.446;9.988;2022-11-04T18:09:17;8.03;;;5.20;;
16387;SDS011;8303;53.446;9.988;2022-11-04T18:11:44;14.27;;;4.43;;
16387;SDS011;8303;53.446;9.988;2022-11-04T18:14:29;6.67;;;4.07;;
16387;SDS011;8303;53.446;9.988;2022-11-04T18:16:57;8.30;;;4.73;;
16387;SDS011;8303;53.446;9.988;2022-11-04T18:19:24;9.57;;;4.73;;
16387;SDS011;8303;53.446;9.988;2022-11-04T18:21:52;10.93;;;4.33;;
16387;SDS011;8303;53.446;9.988;2022-11-04T18:24:20;8.20;;;4.53;;
16387;SDS011;8303;53.446;9.988;2022-11-04T18:26:48;6.03;;;3.43;;
16387;SDS011;8303;53.446;9.988;2022-11-04T18:29:15;5.40;;;3.60;;
16387;SDS011;8303;53.446;9.988;2022-11-04T18:31:42;7.13;;;3.90;;
16387;SDS011;8303;53.446;9.988;2022-11-04T18:34:11;7.73;;;4.20;;
16387;SDS011;8303;53.446;9.988;2022-11-04T18:36:41;10.13;;;4.43;;
16387;SDS011;8303;53.446;9.988;2022-11-04T18:39:10;13.93;;;5.00;;
16387;SDS011;8303;53.446;9.988;2022-11-04T18:41:39;12.30;;;4.90;;
16387;SDS011;8303;53.446;9.988;2022-11-04T18:44:06;8.83;;;4.63;;
16387;SDS011;8303;53.446;9.988;2022-11-04T18:46:34;9.23;;;5.73;;
16387;SDS011;8303;53.446;9.988;2022-11-04T18:49:00;14.40;;;5.83;;
16387;SDS011;8303;53.446;9.988;2022-11-04T18:51:27;9.87;;;5.47;;
16387;SDS011;8303;53.446;9.988;2022-11-04T18:53:54;12.07;;;5.40;;
16387;SDS011;8303;53.446;9.988;2022-11-04T18:56:21;8.20;;;5.83;;
16387;SDS011;8303;53.446;9.988;2022-11-04T18:58:50;10.33;;;5.73;;
16387;SDS011;8303;53.446;9.988;2022-11-04T19:01:18;15.87;;;5.70;;
16387;SDS011;8303;53.446;9.988;2022-11-04T19:03:47;9.47;;;4.53;;
16387;SDS011;8303;53.446;9.988;2022-11-04T19:06:15;17.70;;;5.30;;
16387;SDS011;8303;53.446;9.988;2022-11-04T19:08:44;8.63;;;4.77;;
16387;SDS011;8303;53.446;9.988;2022-11-04T19:11:12;7.23;;;4.90;;
16387;SDS011;8303;53.446;9.988;2022-11-04T19:13:40;10.07;;;4.87;;
16387;SDS011;8303;53.446;9.988;2022-11-04T19:16:09;11.97;;;5.70;;
16387;SDS011;8303;53.446;9.988;2022-11-04T19:18:38;6.77;;;4.70;;
16387;SDS011;8303;53.446;9.988;2022-11-04T19:21:06;7.83;;;4.50;;
16387;SDS011;8303;53.446;9.988;2022-11-04T19:23:35;10.57;;;5.50;;
16387;SDS011;8303;53.446;9.988;2022-11-04T19:26:03;12.83;;;5.70;;
16387;SDS011;8303;53.446;9.988;2022-11-04T19:28:31;9.73;;;5.50;;
16387;SDS011;8303;53.446;9.988;2022-11-04T19:30:58;12.90;;;5.80;;
16387;SDS011;8303;53.446;9.988;2022-11-04T19:33:27;15.83;;;5.40;;
16387;SDS011;8303;53.446;9.988;2022-11-04T19:35:55;6.80;;;4.90;;
16387;SDS011;8303;53.446;9.988;2022-11-04T19:38:23;10.30;;;5.80;;
16387;SDS011;8303;53.446;9.988;2022-11-04T19:40:50;8.67;;;5.97;;
16387;SDS011;8303;53.446;9.988;2022-11-04T19:43:17;9.50;;;4.90;;
16387;SDS011;8303;53.446;9.988;2022-11-04T19:45:44;9.97;;;5.33;;
16387;SDS011;8303;53.446;9.988;2022-11-04T19:48:13;6.90;;;4.10;;
16387;SDS011;8303;53.446;9.988;2022-11-04T19:50:42;9.50;;;4.70;;
16387;SDS011;8303;53.446;9.988;2022-11-04T19:53:10;8.73;;;4.40;;
16387;SDS011;8303;53.446;9.988;2022-11-04T19:55:37;8.37;;;4.83;;
16387;SDS011;8303;53.446;9.988;2022-11-04T19:58:04;9.40;;;4.10;;
16387;SDS011;8303;53.446;9.988;2022-11-04T20:00:32;8.17;;;4.53;;
16387;SDS011;8303;53.446;9.988;2022-11-04T20:02:59;11.20;;;5.37;;
16387;SDS011;8303;53.446;9.988;2022-11-04T20:05:26;10.13;;;4.80;;
16387;SDS011;8303;53.446;9.988;2022-11-04T20:07:54;11.73;;;4.77;;
16387;SDS011;8303;53.446;9.988;2022-11-04T20:10:21;7.70;;;4.40;;
16387;SDS011;8303;53.446;9.988;2022-11-04T20:12:48;10.50;;;4.80;;
16387;SDS011;8303;53.446;9.988;2022-11-04T20:15:33;9.93;;;4.20;;
16387;SDS011;8303;53.446;9.988;2022-11-04T20:18:00;5.87;;;4.03;;
16387;SDS011;8303;53.446;9.988;2022-11-04T20:20:27;10.93;;;5.20;;
16387;SDS011;8303;53.446;9.988;2022-11-04T20:22:56;6.13;;;4.53;;
16387;SDS011;8303;53.446;9.988;2022-11-04T20:25:23;12.43;;;3.87;;
16387;SDS011;8303;53.446;9.988;2022-11-04T20:27:50;8.33;;;4.30;;
16387;SDS011;8303;53.446;9.988;2022-11-04T20:30:17;12.27;;;4.87;;
16387;SDS011;8303;53.446;9.988;2022-11-04T20:32:44;11.93;;;4.10;;
16387;SDS011;8303;53.446;9.988;2022-11-04T20:35:11;12.10;;;5.20;;
16387;SDS011;8303;53.446;9.988;2022-11-04T20:37:38;12.73;;;4.47;;
16387;SDS011;8303;53.446;9.988;2022-11-04T20:40:07;9.80;;;4.60;;
16387;SDS011;8303;53.446;9.988;2022-11-04T20:42:34;9.90;;;4.80;;
16387;SDS011;8303;53.446;9.988;2022-11-04T20:45:01;10.00;;;4.60;;
16387;SDS011;8303;53.446;9.988;2022-11-04T20:47:28;8.73;;;4.33;;
16387;SDS011;8303;53.446;9.988;2022-11-04T20:49:55;9.80;;;4.23;;
16387;SDS011;8303;53.446;9.988;2022-11-04T20:52:22;7.40;;;4.13;;
16387;SDS011;8303;53.446;9.988;2022-11-04T20:54:49;10.10;;;4.00;;
16387;SDS011;8303;53.446;9.988;2022-11-04T20:57:17;8.23;;;4.17;;
16387;SDS011;8303;53.446;9.988;2022-11-04T20:59:44;10.23;;;4.40;;
16387;SDS011;8303;53.446;9.988;2022-11-04T21:02:10;14.27;;;4.30;;
16387;SDS011;8303;53.446;9.988;2022-11-04T21:04:37;14.10;;;5.57;;
16387;SDS011;8303;53.446;9.988;2022-11-04T21:07:04;11.13;;;4.77;;
16387;SDS011;8303;53.446;9.988;2022-11-04T21:09:31;11.07;;;5.00;;
16387;SDS011;8303;53.446;9.988;2022-11-04T21:11:58;10.50;;;5.33;;
16387;SDS011;8303;53.446;9.988;2022-11-04T21:14:26;10.60;;;4.53;;
16387;SDS011;8303;53.446;9.988;2022-11-04T21:16:55;13.90;;;4.90;;
16387;SDS011;8303;53.446;9.988;2022-11-04T21:19:22;9.90;;;4.70;;
16387;SDS011;8303;53.446;9.988;2022-11-04T21:21:49;7.10;;;4.53;;